Time,TemperatureF,DewpointF,PressureIn,WindDirection,WindDirectionDegrees,WindSpeedMPH,WindSpeedGustMPH,Humidity,HourlyPrecipIn,Conditions,Clouds,dailyrainin,SoftwareType,DateUTC
2013-02-12 00:00:00,31.2,28.3,30.11,North,0,0.0,0.0,89,0.00,,,0.00,Wunderground v.1.12,2013-02-12 07:00:00,
2013-02-12 00:05:00,31.3,28.4,30.12,North,0,0.0,0.0,89,0.00,,,0.00,Wunderground v.1.12,2013-02-12 07:05:00,
2013-02-12 00:10:00,31.2,28.3,30.12,North,0,0.0,0.0,89,0.00,,,0.00,Wunderground v.1.12,2013-02-12 07:10:00,
2013-02-12 00:15:00,31.1,28.2,30.12,North,0,0.0,0.0,89,0.00,,,0.00,Wunderground v.1.12,2013-02-12 07:15:00,
2013-02-12 00:25:00,31.0,28.1,30.11,North,0,0.0,0.0,89,0.00,,,0.00,Wunderground v.1.12,2013-02-12 07:25:00,
2013-02-12 00:30:00,31.1,28.5,30.12,North,0,0.0,0.0,90,0.00,,,0.00,Wunderground v.1.12,2013-02-12 07:30:00,
2013-02-12 00:35:00,31.0,28.4,30.12,North,0,0.0,0.0,90,0.00,,,0.00,Wunderground v.1.12,2013-02-12 07:35:00,
2013-02-12 00:40:00,30.6,28.0,30.12,North,0,0.0,0.0,90,0.00,,,0.00,Wunderground v.1.12,2013-02-12 07:40:00,
2013-02-12 00:45:00,30.8,28.2,30.12,North,0,0.0,0.0,90,0.00,,,0.00,Wunderground v.1.12,2013-02-12 07:45:00,
2013-02-12 00:50:00,30.9,28.3,30.12,North,0,0.0,0.0,90,0.00,,,0.00,Wunderground v.1.12,2013-02-12 07:50:00,
2013-02-12 01:00:00,30.5,28.2,30.11,North,0,0.0,0.0,91,0.00,,,0.00,Wunderground v.1.12,2013-02-12 08:00:00,
2013-02-12 01:05:00,30.9,28.6,30.12,N/A,-737280,0.0,0.0,91,0.00,,,0.00,Wunderground v.1.12,2013-02-12 08:05:00,
2013-02-12 01:15:00,30.7,28.7,30.11,North,0,0.0,0.0,92,0.00,,,0.00,Wunderground v.1.12,2013-02-12 08:15:00,
2013-02-12 01:20:00,30.6,28.3,30.11,North,0,0.0,0.0,91,0.00,,,0.00,Wunderground v.1.12,2013-02-12 08:20:00,
2013-02-12 01:30:00,30.5,28.2,30.11,North,0,0.0,0.0,91,0.00,,,0.00,Wunderground v.1.12,2013-02-12 08:30:00,
2013-02-12 01:35:00,30.6,28.6,30.11,North,0,0.0,0.0,92,0.00,,,0.00,Wunderground v.1.12,2013-02-12 08:35:00,
2013-02-12 01:40:00,30.4,28.1,30.11,North,0,0.0,0.0,91,0.00,,,0.00,Wunderground v.1.12,2013-02-12 08:40:00,
2013-02-12 01:45:00,30.1,28.1,30.11,North,0,0.0,0.0,92,0.00,,,0.00,Wunderground v.1.12,2013-02-12 08:45:00,
2013-02-12 01:50:00,30.7,28.7,30.11,North,0,0.0,0.0,92,0.00,,,0.00,Wunderground v.1.12,2013-02-12 08:50:00,
2013-02-12 02:00:00,30.2,28.2,30.11,North,0,0.0,0.0,92,0.00,,,0.00,Wunderground v.1.12,2013-02-12 09:00:00,
2013-02-12 02:05:00,30.1,28.1,30.11,North,0,0.0,0.0,92,0.00,,,0.00,Wunderground v.1.12,2013-02-12 09:05:00,
2013-02-12 02:10:00,30.2,27.9,30.12,North,0,0.0,0.0,91,0.00,,,0.00,Wunderground v.1.12,2013-02-12 09:10:00,
2013-02-12 02:15:00,30.3,28.3,30.13,North,0,0.0,0.0,92,0.00,,,0.00,Wunderground v.1.12,2013-02-12 09:15:00,
2013-02-12 02:20:00,30.4,28.4,30.12,North,0,0.0,0.0,92,0.00,,,0.00,Wunderground v.1.12,2013-02-12 09:20:00,
2013-02-12 02:25:00,30.1,28.1,30.12,North,0,0.0,0.0,92,0.00,,,0.00,Wunderground v.1.12,2013-02-12 09:25:00,
2013-02-12 02:30:00,30.4,28.4,30.12,North,0,0.0,0.0,92,0.00,,,0.00,Wunderground v.1.12,2013-02-12 09:30:00,
2013-02-12 02:35:00,30.3,28.3,30.13,N/A,-737280,0.0,0.0,92,0.00,,,0.00,Wunderground v.1.12,2013-02-12 09:35:00,
2013-02-12 02:40:00,29.9,27.9,30.12,North,0,0.0,0.0,92,0.00,,,0.00,Wunderground v.1.12,2013-02-12 09:40:00,
2013-02-12 02:45:00,30.2,28.2,30.12,North,0,0.0,0.0,92,0.00,,,0.00,Wunderground v.1.12,2013-02-12 09:45:00,
2013-02-12 02:50:00,30.6,28.6,30.12,North,0,0.0,0.0,92,0.00,,,0.00,Wunderground v.1.12,2013-02-12 09:50:00,
2013-02-12 02:55:00,30.7,28.7,30.11,North,0,0.0,0.0,92,0.00,,,0.00,Wunderground v.1.12,2013-02-12 09:55:00,
2013-02-12 03:05:00,30.5,28.7,30.11,North,0,0.0,0.0,93,0.00,,,0.00,Wunderground v.1.12,2013-02-12 10:05:00,
2013-02-12 03:10:00,30.4,28.6,30.12,North,0,0.0,0.0,93,0.00,,,0.00,Wunderground v.1.12,2013-02-12 10:10:00,
2013-02-12 03:15:00,30.3,28.5,30.11,North,0,0.0,0.0,93,0.00,,,0.00,Wunderground v.1.12,2013-02-12 10:15:00,
2013-02-12 03:20:00,30.4,28.6,30.12,North,0,0.0,0.0,93,0.00,,,0.00,Wunderground v.1.12,2013-02-12 10:20:00,
2013-02-12 03:25:00,30.3,28.5,30.12,North,0,0.0,0.0,93,0.00,,,0.00,Wunderground v.1.12,2013-02-12 10:25:00,
2013-02-12 03:30:00,30.5,28.7,30.12,North,0,0.0,0.0,93,0.00,,,0.00,Wunderground v.1.12,2013-02-12 10:30:00,
2013-02-12 03:35:00,30.5,28.7,30.12,N/A,-737280,0.0,0.0,93,0.00,,,0.00,Wunderground v.1.12,2013-02-12 10:35:00,
2013-02-12 03:40:00,30.3,28.5,30.11,North,0,0.0,0.0,93,0.00,,,0.00,Wunderground v.1.12,2013-02-12 10:40:00,
2013-02-12 03:45:00,30.3,28.5,30.11,North,0,0.0,0.0,93,0.00,,,0.00,Wunderground v.1.12,2013-02-12 10:45:00,
2013-02-12 03:50:00,30.3,28.5,30.11,North,0,0.0,0.0,93,0.00,,,0.00,Wunderground v.1.12,2013-02-12 10:50:00,
2013-02-12 03:55:00,30.4,28.6,30.12,North,0,0.0,0.0,93,0.00,,,0.00,Wunderground v.1.12,2013-02-12 10:55:00,
2013-02-12 04:05:00,30.5,28.7,30.12,North,0,0.0,0.0,93,0.00,,,0.00,Wunderground v.1.12,2013-02-12 11:05:00,
2013-02-12 04:10:00,30.7,28.9,30.13,North,0,0.0,0.0,93,0.00,,,0.00,Wunderground v.1.12,2013-02-12 11:10:00,
2013-02-12 04:15:00,31.2,29.4,30.12,North,0,0.0,0.0,93,0.00,,,0.00,Wunderground v.1.12,2013-02-12 11:15:00,
2013-02-12 04:20:00,30.6,28.8,30.12,North,0,0.0,0.0,93,0.00,,,0.00,Wunderground v.1.12,2013-02-12 11:20:00,
2013-02-12 04:25:00,30.8,28.8,30.12,North,0,0.0,0.0,92,0.00,,,0.00,Wunderground v.1.12,2013-02-12 11:25:00,
2013-02-12 04:30:00,30.7,28.9,30.12,North,0,0.0,0.0,93,0.00,,,0.00,Wunderground v.1.12,2013-02-12 11:30:00,
2013-02-12 04:40:00,30.7,28.9,30.12,North,0,0.0,0.0,93,0.00,,,0.00,Wunderground v.1.12,2013-02-12 11:40:00,
2013-02-12 04:45:00,31.0,29.2,30.12,North,0,0.0,0.0,93,0.00,,,0.00,Wunderground v.1.12,2013-02-12 11:45:00,
2013-02-12 04:50:00,31.1,29.0,30.13,North,0,0.0,0.0,92,0.00,,,0.00,Wunderground v.1.12,2013-02-12 11:50:00,
2013-02-12 04:55:00,30.8,29.0,30.13,North,0,0.0,0.0,93,0.00,,,0.00,Wunderground v.1.12,2013-02-12 11:55:00,
2013-02-12 05:00:00,31.0,29.2,30.12,North,0,0.0,0.0,93,0.00,,,0.00,Wunderground v.1.12,2013-02-12 12:00:00,
2013-02-12 05:10:00,31.3,29.2,30.13,North,0,0.0,0.0,92,0.00,,,0.00,Wunderground v.1.12,2013-02-12 12:10:00,
2013-02-12 05:15:00,30.7,28.9,30.13,North,0,0.0,0.0,93,0.00,,,0.00,Wunderground v.1.12,2013-02-12 12:15:00,
2013-02-12 05:20:00,30.7,28.7,30.13,North,0,0.0,0.0,92,0.00,,,0.00,Wunderground v.1.12,2013-02-12 12:20:00,
2013-02-12 05:25:00,30.8,29.0,30.13,North,0,0.0,0.0,93,0.00,,,0.00,Wunderground v.1.12,2013-02-12 12:25:00,
2013-02-12 05:30:00,31.0,29.2,30.13,North,0,0.0,0.0,93,0.00,,,0.00,Wunderground v.1.12,2013-02-12 12:30:00,
2013-02-12 05:40:00,30.6,29.1,30.13,North,0,0.0,0.0,94,0.00,,,0.00,Wunderground v.1.12,2013-02-12 12:40:00,
2013-02-12 05:45:00,30.6,29.1,30.13,North,0,0.0,0.0,94,0.00,,,0.00,Wunderground v.1.12,2013-02-12 12:45:00,
2013-02-12 05:50:00,30.6,29.1,30.13,North,0,0.0,0.0,94,0.00,,,0.00,Wunderground v.1.12,2013-02-12 12:50:00,
2013-02-12 05:55:00,30.4,28.9,30.13,North,0,0.0,0.0,94,0.00,,,0.00,Wunderground v.1.12,2013-02-12 12:55:00,
2013-02-12 06:00:00,30.1,28.6,30.13,North,0,0.0,0.0,94,0.00,,,0.00,Wunderground v.1.12,2013-02-12 13:00:00,
2013-02-12 06:10:00,30.6,29.1,30.13,North,0,0.0,0.0,94,0.00,,,0.00,Wunderground v.1.12,2013-02-12 13:10:00,
2013-02-12 06:15:00,31.1,29.6,30.14,North,0,0.0,0.0,94,0.00,,,0.00,Wunderground v.1.12,2013-02-12 13:15:00,
2013-02-12 06:20:00,30.7,29.2,30.13,North,0,0.0,0.0,94,0.00,,,0.00,Wunderground v.1.12,2013-02-12 13:20:00,
2013-02-12 06:25:00,30.7,28.9,30.13,North,0,0.0,0.0,93,0.00,,,0.00,Wunderground v.1.12,2013-02-12 13:25:00,
2013-02-12 06:30:00,31.0,29.2,30.14,North,0,0.0,0.0,93,0.00,,,0.00,Wunderground v.1.12,2013-02-12 13:30:00,
2013-02-12 06:35:00,31.3,29.5,30.14,North,0,0.0,0.0,93,0.00,,,0.00,Wunderground v.1.12,2013-02-12 13:35:00,
2013-02-12 06:45:00,31.3,29.5,30.14,North,0,0.0,0.0,93,0.00,,,0.00,Wunderground v.1.12,2013-02-12 13:45:00,
2013-02-12 06:50:00,30.8,28.8,30.14,North,0,0.0,0.0,92,0.00,,,0.00,Wunderground v.1.12,2013-02-12 13:50:00,
2013-02-12 06:55:00,31.3,29.2,30.14,North,0,0.0,0.0,92,0.00,,,0.00,Wunderground v.1.12,2013-02-12 13:55:00,
2013-02-12 07:00:00,31.2,29.1,30.14,North,0,0.0,0.0,92,0.00,,,0.00,Wunderground v.1.12,2013-02-12 14:00:00,
2013-02-12 07:05:00,31.2,29.1,30.14,North,0,0.0,0.0,92,0.00,,,0.00,Wunderground v.1.12,2013-02-12 14:05:00,
2013-02-12 07:10:00,31.7,29.4,30.14,North,0,0.0,0.0,91,0.00,,,0.00,Wunderground v.1.12,2013-02-12 14:10:00,
2013-02-12 07:15:00,31.4,29.1,30.14,North,0,0.0,0.0,91,0.00,,,0.00,Wunderground v.1.12,2013-02-12 14:15:00,
2013-02-12 07:20:00,31.4,29.1,30.14,North,0,0.0,0.0,91,0.00,,,0.00,Wunderground v.1.12,2013-02-12 14:20:00,
2013-02-12 07:25:00,31.7,29.6,30.14,North,0,0.0,0.0,92,0.00,,,0.00,Wunderground v.1.12,2013-02-12 14:25:00,
2013-02-12 07:35:00,31.5,29.2,30.14,North,0,0.0,0.0,91,0.00,,,0.00,Wunderground v.1.12,2013-02-12 14:35:00,
2013-02-12 07:45:00,31.5,29.2,30.14,North,0,0.0,0.0,91,0.00,,,0.00,Wunderground v.1.12,2013-02-12 14:45:00,
2013-02-12 07:50:00,31.7,29.4,30.14,North,0,0.0,0.0,91,0.00,,,0.00,Wunderground v.1.12,2013-02-12 14:50:00,
2013-02-12 07:55:00,31.6,29.3,30.14,North,0,0.0,0.0,91,0.00,,,0.00,Wunderground v.1.12,2013-02-12 14:55:00,
2013-02-12 08:00:00,31.4,29.1,30.14,North,0,0.0,0.0,91,0.00,,,0.00,Wunderground v.1.12,2013-02-12 15:00:00,
2013-02-12 08:05:00,31.6,29.3,30.14,North,0,0.0,0.0,91,0.00,,,0.00,Wunderground v.1.12,2013-02-12 15:05:00,
2013-02-12 08:10:00,31.8,29.5,30.14,North,0,0.0,0.0,91,0.00,,,0.00,Wunderground v.1.12,2013-02-12 15:10:00,
2013-02-12 08:15:00,31.8,29.5,30.14,North,0,0.0,0.0,91,0.00,,,0.00,Wunderground v.1.12,2013-02-12 15:15:00,
2013-02-12 08:20:00,31.5,29.2,30.14,North,0,0.0,0.0,91,0.00,,,0.00,Wunderground v.1.12,2013-02-12 15:20:00,
2013-02-12 08:25:00,32.0,29.7,30.14,North,0,0.0,0.0,91,0.00,,,0.00,Wunderground v.1.12,2013-02-12 15:25:00,
2013-02-12 08:30:00,32.2,29.6,30.14,North,0,0.0,0.0,90,0.00,,,0.00,Wunderground v.1.12,2013-02-12 15:30:00,
2013-02-12 08:35:00,31.9,29.3,30.14,North,0,0.0,0.0,90,0.00,,,0.00,Wunderground v.1.12,2013-02-12 15:35:00,
2013-02-12 08:45:00,32.1,29.5,30.15,North,0,0.0,0.0,90,0.00,,,0.00,Wunderground v.1.12,2013-02-12 15:45:00,
2013-02-12 08:50:00,32.7,30.1,30.15,North,0,0.0,0.0,90,0.00,,,0.00,Wunderground v.1.12,2013-02-12 15:50:00,
2013-02-12 08:55:00,32.6,30.0,30.16,North,0,0.0,0.0,90,0.00,,,0.00,Wunderground v.1.12,2013-02-12 15:55:00,
2013-02-12 09:00:00,32.4,29.8,30.15,North,0,0.0,0.0,90,0.00,,,0.00,Wunderground v.1.12,2013-02-12 16:00:00,
2013-02-12 09:05:00,32.7,30.1,30.15,North,356,0.0,0.0,90,0.00,,,0.00,Wunderground v.1.12,2013-02-12 16:05:00,
2013-02-12 09:10:00,32.8,29.9,30.15,North,0,0.0,0.0,89,0.00,,,0.00,Wunderground v.1.12,2013-02-12 16:10:00,
2013-02-12 09:20:00,33.4,30.2,30.15,North,0,0.0,0.0,88,0.00,,,0.00,Wunderground v.1.12,2013-02-12 16:20:00,
2013-02-12 09:25:00,33.8,30.6,30.15,North,0,0.0,0.0,88,0.00,,,0.00,Wunderground v.1.12,2013-02-12 16:25:00,
2013-02-12 09:30:00,34.5,31.3,30.15,North,0,0.0,0.0,88,0.00,,,0.00,Wunderground v.1.12,2013-02-12 16:30:00,
2013-02-12 09:35:00,34.5,31.0,30.15,North,0,0.0,0.0,87,0.00,,,0.00,Wunderground v.1.12,2013-02-12 16:35:00,
2013-02-12 09:40:00,34.9,31.1,30.15,North,0,0.0,0.0,86,0.00,,,0.00,Wunderground v.1.12,2013-02-12 16:40:00,
2013-02-12 09:45:00,35.2,31.4,30.15,East,80,0.0,0.0,86,0.00,,,0.00,Wunderground v.1.12,2013-02-12 16:45:00,
2013-02-12 09:55:00,35.2,31.1,30.15,North,0,0.0,0.0,85,0.00,,,0.00,Wunderground v.1.12,2013-02-12 16:55:00,
2013-02-12 10:00:00,35.4,31.3,30.16,North,0,0.0,0.0,85,0.00,,,0.00,Wunderground v.1.12,2013-02-12 17:00:00,
2013-02-12 10:05:00,35.6,31.5,30.16,NE,43,0.0,0.0,85,0.00,,,0.00,Wunderground v.1.12,2013-02-12 17:05:00,
2013-02-12 10:10:00,35.6,31.5,30.16,North,0,0.0,0.0,85,0.00,,,0.00,Wunderground v.1.12,2013-02-12 17:10:00,
2013-02-12 10:15:00,35.6,31.5,30.16,North,0,0.0,0.0,85,0.00,,,0.00,Wunderground v.1.12,2013-02-12 17:15:00,
2013-02-12 10:25:00,35.8,31.7,30.16,North,0,0.0,0.0,85,0.00,,,0.00,Wunderground v.1.12,2013-02-12 17:25:00,
2013-02-12 10:30:00,35.1,31.0,30.16,North,0,0.0,0.0,85,0.00,,,0.00,Wunderground v.1.12,2013-02-12 17:30:00,
2013-02-12 10:35:00,35.4,31.6,30.16,North,0,0.0,0.0,86,0.00,,,0.00,Wunderground v.1.12,2013-02-12 17:35:00,
2013-02-12 10:40:00,35.3,31.2,30.15,North,0,0.0,0.0,85,0.00,,,0.00,Wunderground v.1.12,2013-02-12 17:40:00,
2013-02-12 10:45:00,35.5,31.7,30.15,North,0,0.0,0.0,86,0.00,,,0.00,Wunderground v.1.12,2013-02-12 17:45:00,
2013-02-12 10:55:00,35.5,31.4,30.15,North,0,0.0,0.0,85,0.00,,,0.00,Wunderground v.1.12,2013-02-12 17:55:00,
2013-02-12 11:00:00,35.5,31.4,30.15,North,0,0.0,0.0,85,0.00,,,0.00,Wunderground v.1.12,2013-02-12 18:00:00,
2013-02-12 11:05:00,36.0,31.9,30.15,NE,45,0.0,0.0,85,0.00,,,0.00,Wunderground v.1.12,2013-02-12 18:05:00,
2013-02-12 11:15:00,35.9,31.8,30.15,North,0,0.0,0.0,85,0.00,,,0.00,Wunderground v.1.12,2013-02-12 18:15:00,
2013-02-12 11:20:00,36.1,31.7,30.15,North,0,1.0,1.0,84,0.00,,,0.00,Wunderground v.1.12,2013-02-12 18:20:00,
2013-02-12 11:30:00,36.7,32.3,30.16,North,0,0.0,0.0,84,0.00,,,0.00,Wunderground v.1.12,2013-02-12 18:30:00,
2013-02-12 11:35:00,36.7,32.3,30.15,North,0,0.0,0.0,84,0.00,,,0.00,Wunderground v.1.12,2013-02-12 18:35:00,
2013-02-12 11:40:00,36.9,32.5,30.16,North,0,0.0,0.0,84,0.00,,,0.00,Wunderground v.1.12,2013-02-12 18:40:00,
2013-02-12 11:45:00,36.7,32.0,30.14,North,0,0.0,0.0,83,0.00,,,0.00,Wunderground v.1.12,2013-02-12 18:45:00,
2013-02-12 11:50:00,37.0,32.3,30.15,North,0,0.0,0.0,83,0.00,,,0.00,Wunderground v.1.12,2013-02-12 18:50:00,
2013-02-12 11:55:00,37.0,32.6,30.15,North,0,1.0,1.0,84,0.00,,,0.00,Wunderground v.1.12,2013-02-12 18:55:00,
2013-02-12 12:00:00,37.5,32.8,30.14,North,0,0.0,0.0,83,0.00,,,0.00,Wunderground v.1.12,2013-02-12 19:00:00,
2013-02-12 12:05:00,37.8,-99.9,30.14,North,0,5.0,5.0,255,0.00,,,0.00,Wunderground v.1.12,2013-02-12 19:05:00,
2013-02-12 12:10:00,38.1,-99.9,30.15,North,0,0.0,0.0,255,0.00,,,0.00,Wunderground v.1.12,2013-02-12 19:10:00,
2013-02-12 12:15:00,38.0,-99.9,30.14,North,0,0.0,0.0,255,0.00,,,0.00,Wunderground v.1.12,2013-02-12 19:15:00,
2013-02-12 12:20:00,38.2,-99.9,30.14,North,0,2.0,2.0,255,0.00,,,0.00,Wunderground v.1.12,2013-02-12 19:20:00,
2013-02-12 12:30:00,38.1,-99.9,30.15,North,0,0.0,0.0,255,0.00,,,0.00,Wunderground v.1.12,2013-02-12 19:30:00,
2013-02-12 12:35:00,37.9,-99.9,30.14,North,354,0.0,0.0,255,0.00,,,0.00,Wunderground v.1.12,2013-02-12 19:35:00,
2013-02-12 12:40:00,37.7,-99.9,30.13,North,0,0.0,0.0,255,0.00,,,0.00,Wunderground v.1.12,2013-02-12 19:40:00,
2013-02-12 12:45:00,38.3,-99.9,30.14,North,0,0.0,0.0,255,0.00,,,0.00,Wunderground v.1.12,2013-02-12 19:45:00,
2013-02-12 12:55:00,38.6,-99.9,30.14,ENE,69,0.0,0.0,255,0.00,,,0.00,Wunderground v.1.12,2013-02-12 19:55:00,
2013-02-12 13:00:00,38.5,-99.9,30.14,North,0,0.0,0.0,255,0.00,,,0.00,Wunderground v.1.12,2013-02-12 20:00:00,
2013-02-12 13:05:00,38.6,-99.9,30.14,North,0,0.0,0.0,255,0.00,,,0.00,Wunderground v.1.12,2013-02-12 20:05:00,
2013-02-12 13:10:00,38.4,-99.9,30.14,North,0,0.0,0.0,255,0.00,,,0.00,Wunderground v.1.12,2013-02-12 20:10:00,
2013-02-12 13:15:00,38.4,-99.9,30.14,SW,235,0.0,0.0,255,0.00,,,0.00,Wunderground v.1.12,2013-02-12 20:15:00,
2013-02-12 13:20:00,38.6,-99.9,30.14,North,0,0.0,0.0,255,0.00,,,0.00,Wunderground v.1.12,2013-02-12 20:20:00,
2013-02-12 13:30:00,38.9,-99.9,30.14,North,0,0.0,0.0,255,0.00,,,0.00,Wunderground v.1.12,2013-02-12 20:30:00,
2013-02-12 13:40:00,38.7,-99.9,30.14,East,93,0.0,0.0,255,0.00,,,0.00,Wunderground v.1.12,2013-02-12 20:40:00,
2013-02-12 13:45:00,38.8,-99.9,30.13,North,0,0.0,0.0,255,0.00,,,0.00,Wunderground v.1.12,2013-02-12 20:45:00,
2013-02-12 13:50:00,38.9,-99.9,30.14,North,0,0.0,0.0,255,0.00,,,0.00,Wunderground v.1.12,2013-02-12 20:50:00,
2013-02-12 13:55:00,39.1,-99.9,30.14,North,0,0.0,0.0,255,0.00,,,0.00,Wunderground v.1.12,2013-02-12 20:55:00,
2013-02-12 14:00:00,39.0,-99.9,30.14,North,0,0.0,0.0,255,0.00,,,0.00,Wunderground v.1.12,2013-02-12 21:00:00,
2013-02-12 14:10:00,38.9,-99.9,30.14,North,0,0.0,0.0,255,0.00,,,0.00,Wunderground v.1.12,2013-02-12 21:10:00,
2013-02-12 14:15:00,38.6,-99.9,30.13,North,0,0.0,0.0,255,0.00,,,0.00,Wunderground v.1.12,2013-02-12 21:15:00,
2013-02-12 14:20:00,38.5,-99.9,30.13,North,0,0.0,0.0,255,0.00,,,0.00,Wunderground v.1.12,2013-02-12 21:20:00,
2013-02-12 14:25:00,38.4,-99.9,30.13,North,0,0.0,0.0,255,0.00,,,0.00,Wunderground v.1.12,2013-02-12 21:25:00,
2013-02-12 14:30:00,38.2,31.3,30.14,North,0,0.0,0.0,76,0.00,,,0.00,Wunderground v.1.12,2013-02-12 21:30:00,
2013-02-12 14:35:00,38.3,31.4,30.14,North,0,0.0,0.0,76,0.00,,,0.00,Wunderground v.1.12,2013-02-12 21:35:00,
2013-02-12 14:45:00,38.2,31.3,30.14,North,0,0.0,0.0,76,0.00,,,0.00,Wunderground v.1.12,2013-02-12 21:45:00,
2013-02-12 14:55:00,38.0,31.1,30.14,NNE,25,1.0,1.0,76,0.00,,,0.00,Wunderground v.1.12,2013-02-12 21:55:00,
2013-02-12 15:00:00,37.8,30.9,30.13,North,0,0.0,0.0,76,0.00,,,0.00,Wunderground v.1.12,2013-02-12 22:00:00,
2013-02-12 15:05:00,37.8,30.9,30.13,North,0,0.0,0.0,76,0.00,,,0.00,Wunderground v.1.12,2013-02-12 22:05:00,
2013-02-12 15:10:00,37.7,30.8,30.13,North,0,0.0,0.0,76,0.00,,,0.00,Wunderground v.1.12,2013-02-12 22:10:00,
2013-02-12 15:15:00,37.6,31.0,30.13,North,0,0.0,0.0,77,0.00,,,0.00,Wunderground v.1.12,2013-02-12 22:15:00,
2013-02-12 15:20:00,37.8,31.2,30.13,North,0,0.0,0.0,77,0.00,,,0.00,Wunderground v.1.12,2013-02-12 22:20:00,
2013-02-12 15:25:00,37.6,31.0,30.13,North,0,0.0,0.0,77,0.00,,,0.00,Wunderground v.1.12,2013-02-12 22:25:00,
2013-02-12 15:35:00,37.5,31.3,30.13,North,0,0.0,0.0,78,0.00,,,0.00,Wunderground v.1.12,2013-02-12 22:35:00,
2013-02-12 15:40:00,37.4,30.8,30.13,North,0,0.0,0.0,77,0.00,,,0.00,Wunderground v.1.12,2013-02-12 22:40:00,
2013-02-12 15:45:00,37.1,30.9,30.13,North,0,0.0,0.0,78,0.00,,,0.00,Wunderground v.1.12,2013-02-12 22:45:00,
2013-02-12 15:50:00,37.2,31.0,30.13,North,1,1.0,1.0,78,0.00,,,0.00,Wunderground v.1.12,2013-02-12 22:50:00,
2013-02-12 15:55:00,37.1,30.9,30.13,North,0,0.0,0.0,78,0.00,,,0.00,Wunderground v.1.12,2013-02-12 22:55:00,
2013-02-12 16:00:00,37.0,30.5,30.13,North,0,0.0,0.0,77,0.00,,,0.00,Wunderground v.1.12,2013-02-12 23:00:00,
2013-02-12 16:05:00,37.3,31.1,30.13,North,2,0.0,0.0,78,0.00,,,0.00,Wunderground v.1.12,2013-02-12 23:05:00,
2013-02-12 16:10:00,37.3,30.7,30.14,North,0,0.0,4.0,77,0.00,,,0.00,Wunderground v.1.12,2013-02-12 23:10:00,
2013-02-12 16:15:00,37.3,30.7,30.13,NE,41,0.0,0.0,77,0.00,,,0.00,Wunderground v.1.12,2013-02-12 23:15:00,
2013-02-12 16:20:00,37.1,30.6,30.13,North,0,0.0,0.0,77,0.00,,,0.00,Wunderground v.1.12,2013-02-12 23:20:00,
2013-02-12 16:25:00,37.2,30.7,30.13,North,0,0.0,0.0,77,0.00,,,0.00,Wunderground v.1.12,2013-02-12 23:25:00,
2013-02-12 16:30:00,37.0,30.8,30.13,North,0,0.0,0.0,78,0.00,,,0.00,Wunderground v.1.12,2013-02-12 23:30:00,
2013-02-12 16:35:00,36.8,30.6,30.12,NE,51,0.0,0.0,78,0.00,,,0.00,Wunderground v.1.12,2013-02-12 23:35:00,
2013-02-12 16:40:00,36.9,30.4,30.12,North,0,0.0,0.0,77,0.00,,,0.00,Wunderground v.1.12,2013-02-12 23:40:00,
2013-02-12 16:45:00,36.7,30.5,30.12,North,0,0.0,0.0,78,0.00,,,0.00,Wunderground v.1.12,2013-02-12 23:45:00,
2013-02-12 16:50:00,37.1,30.9,30.13,North,0,0.0,0.0,78,0.00,,,0.00,Wunderground v.1.12,2013-02-12 23:50:00,
2013-02-12 16:55:00,37.0,30.8,30.13,North,0,0.0,0.0,78,0.00,,,0.00,Wunderground v.1.12,2013-02-12 23:55:00,
2013-02-12 17:00:00,36.8,30.6,30.13,North,5,0.0,0.0,78,0.00,,,0.00,Wunderground v.1.12,2013-02-13 00:00:00,
2013-02-12 17:05:00,36.8,30.6,30.13,North,0,0.0,0.0,78,0.00,,,0.00,Wunderground v.1.12,2013-02-13 00:05:00,
2013-02-12 17:10:00,36.7,30.5,30.13,North,359,0.0,0.0,78,0.00,,,0.00,Wunderground v.1.12,2013-02-13 00:10:00,
2013-02-12 17:15:00,36.5,30.6,30.13,North,0,0.0,0.0,79,0.00,,,0.00,Wunderground v.1.12,2013-02-13 00:15:00,
2013-02-12 17:25:00,36.4,30.5,30.14,North,0,0.0,0.0,79,0.00,,,0.00,Wunderground v.1.12,2013-02-13 00:25:00,
2013-02-12 17:30:00,36.6,30.7,30.14,North,0,3.0,3.0,79,0.00,,,0.00,Wunderground v.1.12,2013-02-13 00:30:00,
2013-02-12 17:35:00,36.3,30.4,30.13,North,0,0.0,0.0,79,0.00,,,0.00,Wunderground v.1.12,2013-02-13 00:35:00,
2013-02-12 17:40:00,36.3,30.4,30.13,NE,51,0.0,0.0,79,0.00,,,0.00,Wunderground v.1.12,2013-02-13 00:40:00,
2013-02-12 17:50:00,36.3,30.4,30.14,North,0,0.0,0.0,79,0.00,,,0.00,Wunderground v.1.12,2013-02-13 00:50:00,
2013-02-12 18:00:00,36.1,30.2,30.13,North,0,0.0,0.0,79,0.00,,,0.00,Wunderground v.1.12,2013-02-13 01:00:00,
2013-02-12 18:05:00,36.3,30.7,30.14,North,0,0.0,1.0,80,0.00,,,0.00,Wunderground v.1.12,2013-02-13 01:05:00,
2013-02-12 18:10:00,36.1,30.5,30.13,North,0,0.0,0.0,80,0.00,,,0.00,Wunderground v.1.12,2013-02-13 01:10:00,
2013-02-12 18:15:00,35.9,30.3,30.13,North,0,0.0,0.0,80,0.00,,,0.00,Wunderground v.1.12,2013-02-13 01:15:00,
2013-02-12 18:25:00,36.0,30.4,30.11,North,355,0.0,0.0,80,0.00,,,0.00,Wunderground v.1.12,2013-02-13 01:25:00,
2013-02-12 18:30:00,36.1,30.5,30.12,North,0,0.0,0.0,80,0.00,,,0.00,Wunderground v.1.12,2013-02-13 01:30:00,
2013-02-12 18:35:00,35.8,30.2,30.12,North,0,0.0,0.0,80,0.00,,,0.00,Wunderground v.1.12,2013-02-13 01:35:00,
2013-02-12 18:40:00,35.9,30.3,30.11,North,0,0.0,0.0,80,0.00,,,0.00,Wunderground v.1.12,2013-02-13 01:40:00,
2013-02-12 18:45:00,36.1,30.5,30.12,North,0,0.0,0.0,80,0.00,,,0.00,Wunderground v.1.12,2013-02-13 01:45:00,
2013-02-12 18:50:00,36.1,30.5,30.12,North,0,0.0,0.0,80,0.00,,,0.00,Wunderground v.1.12,2013-02-13 01:50:00,
2013-02-12 19:00:00,35.9,30.3,30.11,North,0,0.0,0.0,80,0.00,,,0.00,Wunderground v.1.12,2013-02-13 02:00:00,
2013-02-12 19:05:00,35.9,30.3,30.11,North,0,0.0,0.0,80,0.00,,,0.00,Wunderground v.1.12,2013-02-13 02:05:00,
2013-02-12 19:10:00,36.1,30.5,30.11,North,0,0.0,0.0,80,0.00,,,0.00,Wunderground v.1.12,2013-02-13 02:10:00,
2013-02-12 19:15:00,36.0,30.4,30.10,ENE,67,0.0,0.0,80,0.00,,,0.00,Wunderground v.1.12,2013-02-13 02:15:00,
2013-02-12 19:20:00,35.6,30.0,30.10,ENE,68,0.0,0.0,80,0.00,,,0.00,Wunderground v.1.12,2013-02-13 02:20:00,
2013-02-12 19:25:00,35.9,30.3,30.10,North,0,0.0,0.0,80,0.00,,,0.00,Wunderground v.1.12,2013-02-13 02:25:00,
2013-02-12 19:30:00,35.9,30.3,30.10,North,0,0.0,0.0,80,0.00,,,0.00,Wunderground v.1.12,2013-02-13 02:30:00,
2013-02-12 19:35:00,35.7,30.1,30.10,North,2,1.0,1.0,80,0.00,,,0.00,Wunderground v.1.12,2013-02-13 02:35:00,
2013-02-12 19:40:00,35.8,30.2,30.10,North,358,1.0,1.0,80,0.00,,,0.00,Wunderground v.1.12,2013-02-13 02:40:00,
2013-02-12 19:50:00,35.8,30.2,30.09,West,263,0.0,0.0,80,0.00,,,0.00,Wunderground v.1.12,2013-02-13 02:50:00,
2013-02-12 19:55:00,35.9,30.3,30.10,North,1,0.0,0.0,80,0.00,,,0.00,Wunderground v.1.12,2013-02-13 02:55:00,
2013-02-12 20:05:00,36.0,30.7,30.09,NNE,29,1.0,1.0,81,0.00,,,0.00,Wunderground v.1.12,2013-02-13 03:05:00,
2013-02-12 20:15:00,36.1,30.5,30.09,East,95,0.0,0.0,80,0.00,,,0.00,Wunderground v.1.12,2013-02-13 03:15:00,
2013-02-12 20:25:00,36.0,30.7,30.09,North,0,0.0,0.0,81,0.00,,,0.00,Wunderground v.1.12,2013-02-13 03:25:00,
2013-02-12 20:30:00,36.1,30.8,30.08,North,0,0.0,0.0,81,0.00,,,0.00,Wunderground v.1.12,2013-02-13 03:30:00,
2013-02-12 20:40:00,36.0,30.7,30.08,North,0,0.0,0.0,81,0.00,,,0.00,Wunderground v.1.12,2013-02-13 03:40:00,
2013-02-12 20:45:00,36.1,30.8,30.07,North,0,0.0,0.0,81,0.00,,,0.00,Wunderground v.1.12,2013-02-13 03:45:00,
2013-02-12 20:50:00,36.3,31.3,30.07,WNW,290,0.0,0.0,82,0.00,,,0.00,Wunderground v.1.12,2013-02-13 03:50:00,
2013-02-12 20:55:00,36.0,31.0,30.07,North,0,0.0,0.0,82,0.00,,,0.00,Wunderground v.1.12,2013-02-13 03:55:00,
2013-02-12 21:00:00,36.1,31.1,30.07,North,0,0.0,0.0,82,0.00,,,0.00,Wunderground v.1.12,2013-02-13 04:00:00,
2013-02-12 21:10:00,36.0,31.0,30.06,North,0,0.0,0.0,82,0.00,,,0.00,Wunderground v.1.12,2013-02-13 04:10:00,
2013-02-12 21:15:00,35.8,31.1,30.06,North,0,0.0,0.0,83,0.00,,,0.00,Wunderground v.1.12,2013-02-13 04:15:00,
2013-02-12 21:20:00,35.9,31.2,30.06,North,0,0.0,0.0,83,0.00,,,0.00,Wunderground v.1.12,2013-02-13 04:20:00,
2013-02-12 21:25:00,35.9,31.2,30.06,North,0,0.0,0.0,83,0.00,,,0.00,Wunderground v.1.12,2013-02-13 04:25:00,
2013-02-12 21:30:00,36.0,31.3,30.06,North,0,0.0,0.0,83,0.00,,,0.00,Wunderground v.1.12,2013-02-13 04:30:00,
2013-02-12 21:40:00,35.8,31.1,30.06,North,0,0.0,0.0,83,0.00,,,0.00,Wunderground v.1.12,2013-02-13 04:40:00,
2013-02-12 21:45:00,35.9,31.2,30.06,North,0,0.0,0.0,83,0.00,,,0.00,Wunderground v.1.12,2013-02-13 04:45:00,
2013-02-12 21:50:00,35.9,31.2,30.06,North,0,0.0,0.0,83,0.00,,,0.00,Wunderground v.1.12,2013-02-13 04:50:00,
2013-02-12 22:00:00,36.0,31.3,30.05,North,0,0.0,0.0,83,0.00,,,0.00,Wunderground v.1.12,2013-02-13 05:00:00,
2013-02-12 22:05:00,36.2,31.5,30.05,North,0,0.0,0.0,83,0.00,,,0.00,Wunderground v.1.12,2013-02-13 05:05:00,
2013-02-12 22:10:00,36.3,31.6,30.06,NNE,15,0.0,0.0,83,0.00,,,0.00,Wunderground v.1.12,2013-02-13 05:10:00,
2013-02-12 22:15:00,36.2,31.2,30.05,North,0,0.0,0.0,82,0.00,,,0.00,Wunderground v.1.12,2013-02-13 05:15:00,
2013-02-12 22:20:00,36.4,31.7,30.06,NW,310,0.0,0.0,83,0.00,,,0.00,Wunderground v.1.12,2013-02-13 05:20:00,
2013-02-12 22:25:00,36.3,31.3,30.05,North,354,0.0,0.0,82,0.00,,,0.00,Wunderground v.1.12,2013-02-13 05:25:00,
2013-02-12 22:30:00,36.4,31.4,30.05,North,0,0.0,0.0,82,0.00,,,0.00,Wunderground v.1.12,2013-02-13 05:30:00,
2013-02-12 22:40:00,36.3,31.6,30.05,North,0,0.0,0.0,83,0.00,,,0.00,Wunderground v.1.12,2013-02-13 05:40:00,
2013-02-12 22:45:00,36.2,31.5,30.05,North,0,0.0,0.0,83,0.00,,,0.00,Wunderground v.1.12,2013-02-13 05:45:00,
2013-02-12 22:50:00,36.5,31.8,30.06,North,0,0.0,0.0,83,0.00,,,0.00,Wunderground v.1.12,2013-02-13 05:50:00,
2013-02-12 22:55:00,36.5,31.5,30.05,North,0,0.0,0.0,82,0.00,,,0.00,Wunderground v.1.12,2013-02-13 05:55:00,
2013-02-12 23:00:00,36.4,31.4,30.05,North,0,0.0,0.0,82,0.00,,,0.00,Wunderground v.1.12,2013-02-13 06:00:00,
2013-02-12 23:05:00,36.4,31.7,30.05,North,0,0.0,0.0,83,0.00,,,0.00,Wunderground v.1.12,2013-02-13 06:05:00,
2013-02-12 23:15:00,36.7,31.7,30.04,North,0,0.0,0.0,82,0.00,,,0.00,Wunderground v.1.12,2013-02-13 06:15:00,
2013-02-12 23:20:00,36.6,31.6,30.04,North,0,0.0,0.0,82,0.00,,,0.00,Wunderground v.1.12,2013-02-13 06:20:00,
2013-02-12 23:25:00,36.4,31.7,30.03,North,0,0.0,0.0,83,0.00,,,0.00,Wunderground v.1.12,2013-02-13 06:25:00,
2013-02-12 23:30:00,36.6,31.9,30.04,North,0,0.0,0.0,83,0.00,,,0.00,Wunderground v.1.12,2013-02-13 06:30:00,
2013-02-12 23:35:00,36.6,31.9,30.04,North,0,0.0,0.0,83,0.00,,,0.00,Wunderground v.1.12,2013-02-13 06:35:00,
2013-02-12 23:40:00,36.6,31.9,30.04,North,0,0.0,0.0,83,0.00,,,0.00,Wunderground v.1.12,2013-02-13 06:40:00,
2013-02-12 23:45:00,36.6,32.2,30.03,North,0,0.0,0.0,84,0.00,,,0.00,Wunderground v.1.12,2013-02-13 06:45:00,
2013-02-12 23:50:00,36.6,32.2,30.03,North,0,0.0,0.0,84,0.00,,,0.00,Wunderground v.1.12,2013-02-13 06:50:00,
2013-02-12 23:55:00,36.6,32.2,30.03,North,0,0.0,0.0,84,0.00,,,0.00,Wunderground v.1.12,2013-02-13 06:55:00,